createdAt,value
2019-04-01T00:00:35.049Z,55.50
2019-04-01T00:03:07.562Z,55.85
2019-04-01T00:05:38.877Z,55.64
2019-04-01T00:08:10.055Z,56.07
2019-04-01T00:10:41.296Z,56.19
2019-04-01T00:13:14.041Z,55.77
2019-04-01T00:15:45.179Z,55.77
2019-04-01T00:18:16.713Z,55.95
2019-04-01T00:20:48.193Z,56.25
2019-04-01T00:23:19.600Z,56.11
2019-04-01T00:25:50.881Z,56.09
2019-04-01T00:28:22.456Z,55.96
2019-04-01T00:30:53.531Z,56.07
2019-04-01T00:33:24.651Z,55.76
2019-04-01T00:35:55.859Z,56.03
2019-04-01T00:38:27.827Z,56.14
2019-04-01T00:40:58.927Z,56.56
2019-04-01T00:43:58.107Z,56.50
2019-04-01T00:46:31.043Z,56.21
2019-04-01T00:49:02.141Z,56.15
2019-04-01T00:51:33.173Z,56.49
2019-04-01T00:54:04.231Z,56.38
2019-04-01T00:56:35.257Z,56.49
2019-04-01T00:59:06.361Z,56.29
2019-04-01T01:01:37.378Z,56.30
2019-04-01T01:04:08.641Z,56.41
2019-04-01T01:06:39.644Z,56.24
2019-04-01T01:09:10.769Z,56.46
2019-04-01T01:11:41.875Z,56.64
2019-04-01T01:14:12.895Z,57.01
2019-04-01T01:16:43.994Z,57.36
2019-04-01T01:19:15.104Z,57.02
2019-04-01T01:21:46.867Z,57.87
2019-04-01T01:24:19.002Z,57.06
2019-04-01T01:26:50.059Z,57.29
2019-04-01T01:29:21.237Z,57.38
2019-04-01T01:31:52.257Z,57.88
2019-04-01T01:34:23.558Z,57.55
2019-04-01T01:36:54.656Z,57.50
2019-04-01T01:39:25.764Z,58.07
2019-04-01T01:41:56.975Z,57.46
2019-04-01T01:44:28.016Z,57.45
2019-04-01T01:46:59.063Z,57.40
2019-04-01T01:49:30.146Z,57.72
2019-04-01T01:52:01.232Z,57.86
2019-04-01T01:54:33.307Z,57.77
2019-04-01T01:57:04.459Z,57.71
2019-04-01T01:59:35.492Z,58.39
2019-04-01T02:02:07.435Z,58.00
2019-04-01T02:04:38.474Z,57.99
2019-04-01T02:07:09.575Z,58.02
2019-04-01T02:09:40.695Z,57.92
2019-04-01T02:12:11.770Z,57.97
2019-04-01T02:14:42.811Z,58.05
2019-04-01T02:17:14.080Z,58.33
2019-04-01T02:19:45.155Z,58.61
2019-04-01T02:22:16.253Z,59.07
2019-04-01T02:24:47.511Z,59.02
2019-04-01T02:27:18.541Z,59.18
2019-04-01T02:29:49.824Z,59.34
2019-04-01T02:32:20.847Z,59.21
2019-04-01T02:34:51.899Z,59.29
2019-04-01T02:37:22.921Z,59.93
2019-04-01T02:39:54.104Z,59.30
2019-04-01T02:42:25.360Z,59.80
2019-04-01T02:44:56.408Z,60.31
2019-04-01T02:47:27.497Z,60.02
2019-04-01T02:49:58.514Z,59.88
2019-04-01T02:52:29.524Z,59.56
2019-04-01T02:55:01.034Z,60.20
2019-04-01T02:57:33.276Z,60.20
2019-04-01T03:00:04.901Z,61.00
2019-04-01T03:02:35.895Z,60.62
2019-04-01T03:05:07.701Z,60.75
2019-04-01T03:07:38.800Z,60.42
2019-04-01T03:10:10.193Z,60.70
2019-04-01T03:12:41.298Z,61.22
2019-04-01T03:15:12.387Z,61.19
2019-04-01T03:17:43.472Z,61.58
2019-04-01T03:20:14.739Z,61.87
2019-04-01T03:22:45.763Z,61.34
2019-04-01T03:25:16.932Z,61.33
2019-04-01T03:27:48.124Z,61.17
2019-04-01T03:30:19.306Z,61.76
2019-04-01T03:32:50.395Z,61.49
2019-04-01T03:35:21.501Z,62.17
2019-04-01T03:37:52.673Z,62.08
2019-04-01T03:40:23.788Z,64.82
2019-04-01T03:42:54.794Z,64.13
2019-04-01T03:45:25.817Z,63.25
2019-04-01T03:47:57.080Z,63.62
2019-04-01T03:50:28.334Z,64.00
2019-04-01T03:52:59.331Z,64.65
2019-04-01T03:55:31.415Z,64.28
2019-04-01T03:58:02.510Z,65.19
2019-04-01T04:00:33.640Z,64.54
2019-04-01T04:03:04.758Z,64.22
2019-04-01T04:05:35.859Z,64.11
2019-04-01T04:08:06.936Z,64.15
2019-04-01T04:10:38.131Z,64.50
2019-04-01T04:13:09.505Z,65.23
2019-04-01T04:15:40.628Z,65.11
2019-04-01T04:18:11.839Z,64.63
2019-04-01T04:20:42.930Z,64.50
2019-04-01T04:23:14.011Z,64.24
2019-04-01T04:25:45.158Z,64.29
2019-04-01T04:28:16.143Z,64.00
2019-04-01T04:30:47.726Z,63.47
2019-04-01T04:33:18.952Z,64.64
2019-04-01T04:35:50.029Z,63.67
2019-04-01T04:38:21.039Z,63.50
2019-04-01T04:40:52.187Z,63.22
2019-04-01T04:43:23.199Z,65.17
2019-04-01T04:45:54.238Z,64.89
2019-04-01T04:48:25.349Z,64.23
2019-04-01T04:50:56.477Z,63.61
2019-04-01T04:53:27.519Z,63.40
2019-04-01T04:55:58.559Z,63.70
2019-04-01T04:58:29.660Z,64.80
2019-04-01T05:01:00.696Z,64.45
2019-04-01T05:03:31.734Z,64.39
2019-04-01T05:06:02.780Z,64.03
2019-04-01T05:08:33.827Z,64.52
2019-04-01T05:11:05.027Z,64.31
2019-04-01T05:13:38.003Z,64.18
2019-04-01T05:16:09.255Z,64.31
2019-04-01T05:18:40.386Z,65.08
2019-04-01T05:21:12.526Z,65.02
2019-04-01T05:23:43.868Z,65.05
2019-04-01T05:26:15.037Z,64.69
2019-04-01T05:28:47.882Z,64.77
2019-04-01T05:31:22.993Z,64.84
2019-04-01T05:33:56.216Z,65.28
2019-04-01T05:36:27.868Z,65.57
2019-04-01T05:38:59.023Z,67.06
2019-04-01T05:41:30.191Z,65.99
2019-04-01T05:44:02.660Z,67.71
2019-04-01T05:46:33.731Z,66.41
2019-04-01T05:49:04.807Z,65.83
2019-04-01T05:51:35.991Z,68.00
2019-04-01T05:54:07.243Z,67.96
2019-04-01T05:56:38.435Z,67.31
2019-04-01T05:59:09.593Z,67.94
2019-04-01T06:01:43.847Z,68.18
2019-04-01T06:04:15.118Z,68.25
2019-04-01T06:06:48.772Z,68.22
2019-04-01T06:09:19.327Z,67.41
2019-04-01T06:11:50.461Z,67.11
2019-04-01T06:14:21.908Z,68.91
2019-04-01T06:16:53.071Z,67.38
2019-04-01T06:19:24.454Z,66.74
2019-04-01T06:21:56.234Z,67.33
2019-04-01T06:24:27.319Z,67.62
2019-04-01T06:26:59.834Z,68.54
2019-04-01T06:29:31.532Z,69.59
2019-04-01T06:32:02.883Z,69.20
2019-04-01T06:34:34.115Z,69.65
2019-04-01T06:37:05.362Z,69.42
2019-04-01T06:39:36.503Z,69.00
2019-04-01T06:42:07.619Z,68.55
2019-04-01T06:44:39.785Z,68.43
2019-04-01T06:47:10.959Z,68.85
2019-04-01T06:49:42.090Z,68.70
2019-04-01T06:52:13.215Z,68.57
2019-04-01T06:54:44.271Z,68.12
2019-04-01T06:57:16.437Z,67.36
2019-04-01T06:59:47.981Z,67.70
2019-04-01T07:02:19.373Z,67.13
2019-04-01T07:04:50.728Z,67.81
2019-04-01T07:07:21.920Z,68.23
2019-04-01T07:09:53.347Z,68.31
2019-04-01T07:12:24.543Z,67.93
2019-04-01T07:14:55.570Z,68.14
2019-04-01T07:17:26.745Z,67.63
2019-04-01T07:19:57.904Z,66.79
2019-04-01T07:22:28.923Z,66.92
2019-04-01T07:25:00.080Z,65.91
2019-04-01T07:27:31.935Z,64.69
2019-04-01T07:30:03.330Z,63.54
2019-04-01T07:32:35.056Z,64.48
2019-04-01T07:35:06.988Z,64.48
2019-04-01T07:37:38.206Z,64.26
2019-04-01T07:40:13.814Z,63.92
2019-04-01T07:42:43.889Z,63.57
2019-04-01T07:45:15.255Z,63.52
2019-04-01T07:47:46.454Z,62.77
2019-04-01T07:50:18.011Z,62.39
2019-04-01T07:52:49.257Z,62.66
2019-04-01T07:55:20.435Z,61.72
2019-04-01T07:57:51.494Z,62.31
2019-04-01T08:00:22.719Z,61.79
2019-04-01T08:02:53.957Z,61.55
2019-04-01T08:05:26.218Z,61.07
2019-04-01T08:07:58.042Z,61.17
2019-04-01T08:10:29.279Z,61.03
2019-04-01T08:13:00.350Z,59.48
2019-04-01T08:15:31.405Z,59.34
2019-04-01T08:18:02.556Z,60.35
2019-04-01T08:20:33.711Z,60.20
2019-04-01T08:23:05.232Z,59.86
2019-04-01T08:25:36.507Z,58.83
2019-04-01T08:28:07.647Z,57.46
2019-04-01T08:30:38.923Z,58.10
2019-04-01T08:33:09.934Z,56.44
2019-04-01T08:35:41.006Z,55.39
2019-04-01T08:38:12.131Z,56.85
2019-04-01T08:40:43.308Z,56.99
2019-04-01T08:43:15.841Z,58.19
2019-04-01T08:45:47.131Z,57.60
2019-04-01T08:48:18.429Z,57.64
2019-04-01T08:50:49.590Z,56.45
2019-04-01T08:53:21.332Z,56.52
2019-04-01T08:56:00.265Z,56.89
2019-04-01T08:58:25.305Z,56.65
2019-04-01T09:00:56.895Z,54.78
2019-04-01T09:03:28.023Z,53.92
2019-04-01T09:05:59.321Z,52.95
2019-04-01T09:08:30.849Z,53.71
2019-04-01T09:11:02.095Z,52.63
2019-04-01T09:13:33.750Z,52.18
2019-04-01T09:16:06.287Z,53.46
2019-04-01T09:18:37.405Z,54.09
2019-04-01T09:21:08.533Z,53.83
2019-04-01T09:23:39.602Z,54.66
2019-04-01T09:26:10.815Z,53.83
2019-04-01T09:28:41.852Z,55.16
2019-04-01T09:31:13.029Z,52.93
2019-04-01T09:33:44.065Z,53.94
2019-04-01T09:36:15.186Z,53.83
2019-04-01T09:38:46.231Z,52.96
2019-04-01T09:41:17.412Z,53.52
2019-04-01T09:43:48.591Z,52.55
2019-04-01T09:46:19.587Z,52.91
2019-04-01T09:48:51.751Z,53.11
2019-04-01T09:51:22.941Z,53.05
2019-04-01T09:53:54.139Z,51.27
2019-04-01T09:56:25.398Z,52.29
2019-04-01T09:58:56.646Z,52.69
2019-04-01T10:01:27.682Z,53.34
2019-04-01T10:03:58.890Z,52.23
2019-04-01T10:06:30.047Z,53.02
2019-04-01T10:09:01.176Z,52.80
2019-04-01T10:11:33.537Z,53.24
2019-04-01T10:14:04.796Z,53.17
2019-04-01T10:16:35.861Z,52.72
2019-04-01T10:19:07.113Z,52.38
2019-04-01T10:21:38.124Z,51.10
2019-04-01T10:24:09.241Z,51.34
2019-04-01T10:26:40.270Z,51.42
2019-04-01T10:29:11.390Z,52.93
2019-04-01T10:31:42.509Z,52.87
2019-04-01T10:34:13.806Z,52.19
2019-04-01T10:36:45.194Z,52.06
2019-04-01T10:39:16.257Z,51.43
2019-04-01T10:41:47.281Z,51.43
2019-04-01T10:44:18.331Z,51.11
2019-04-01T10:46:49.522Z,51.14
2019-04-01T10:49:20.633Z,52.11
2019-04-01T10:51:51.753Z,51.73
2019-04-01T10:54:23.015Z,51.75
2019-04-01T10:56:54.220Z,52.52
2019-04-01T10:59:25.293Z,52.63
2019-04-01T11:01:56.513Z,52.47
2019-04-01T11:04:27.745Z,51.14
2019-04-01T11:06:58.831Z,51.58
2019-04-01T11:09:38.092Z,51.71
2019-04-01T11:12:03.152Z,51.86
2019-04-01T11:14:34.320Z,50.90
2019-04-01T11:17:05.511Z,50.73
2019-04-01T11:19:36.721Z,51.21
2019-04-01T11:22:07.837Z,51.64
2019-04-01T11:24:38.910Z,51.73
2019-04-01T11:27:09.927Z,52.17
2019-04-01T11:29:41.079Z,51.62
2019-04-01T11:32:13.570Z,52.37
2019-04-01T11:34:45.028Z,51.75
2019-04-01T11:37:16.297Z,50.86
2019-04-01T11:39:47.495Z,52.15
2019-04-01T11:42:18.587Z,51.64
2019-04-01T11:44:49.775Z,51.90
2019-04-01T11:47:22.256Z,51.62
2019-04-01T11:49:53.711Z,52.01
2019-04-01T11:52:24.880Z,51.92
2019-04-01T11:54:55.931Z,51.06
2019-04-01T11:57:26.953Z,50.86
2019-04-01T11:59:58.162Z,51.38
2019-04-01T12:02:29.231Z,51.86
2019-04-01T12:05:00.539Z,51.98
2019-04-01T12:07:32.839Z,51.21
2019-04-01T12:10:07.368Z,50.53
2019-04-01T12:12:37.068Z,50.32
2019-04-01T12:15:12.314Z,50.22
2019-04-01T12:17:42.782Z,49.81
2019-04-01T12:20:14.288Z,49.77
2019-04-01T12:22:46.142Z,48.88
2019-04-01T12:25:17.235Z,49.23
2019-04-01T12:27:48.326Z,48.85
2019-04-01T12:30:19.727Z,49.44
2019-04-01T12:32:51.948Z,48.63
2019-04-01T12:35:23.122Z,48.05
2019-04-01T12:37:54.284Z,47.87
2019-04-01T12:40:25.482Z,47.40
2019-04-01T12:42:56.707Z,47.91
2019-04-01T12:45:27.910Z,47.82
2019-04-01T12:47:58.911Z,48.29
2019-04-01T12:50:30.109Z,47.91
2019-04-01T12:53:01.148Z,48.20
2019-04-01T12:55:32.320Z,47.81
2019-04-01T12:58:03.332Z,47.22
2019-04-01T13:00:34.457Z,47.08
2019-04-01T13:03:05.553Z,48.03
2019-04-01T13:05:36.686Z,47.48
2019-04-01T13:08:07.871Z,47.35
2019-04-01T13:10:38.921Z,46.91
2019-04-01T13:13:12.836Z,47.12
2019-04-01T13:15:42.769Z,47.72
2019-04-01T13:18:13.776Z,47.61
2019-04-01T13:20:44.824Z,46.70
2019-04-01T13:23:15.923Z,47.14
2019-04-01T13:25:47.166Z,46.88
2019-04-01T13:28:18.424Z,47.27
2019-04-01T13:30:49.543Z,46.11
2019-04-01T13:33:20.612Z,46.76
2019-04-01T13:35:52.938Z,46.34
2019-04-01T13:38:25.560Z,46.75
2019-04-01T13:40:56.724Z,46.23
2019-04-01T13:43:27.731Z,45.94
2019-04-01T13:45:58.832Z,46.01
2019-04-01T13:48:29.915Z,46.23
2019-04-01T13:51:01.333Z,46.51
2019-04-01T13:53:32.585Z,46.50
2019-04-01T13:56:03.705Z,46.20
2019-04-01T13:58:34.889Z,46.26
2019-04-01T14:01:06.078Z,46.05
2019-04-01T14:03:37.161Z,45.01
2019-04-01T14:06:08.409Z,45.15
2019-04-01T14:08:39.474Z,45.27
2019-04-01T14:11:10.865Z,46.35
2019-04-01T14:13:41.887Z,45.06
2019-04-01T14:16:12.982Z,45.44
2019-04-01T14:18:44.077Z,44.83
2019-04-01T14:21:18.935Z,44.55
2019-04-01T14:23:48.199Z,45.26
2019-04-01T14:26:19.324Z,45.29
2019-04-01T14:28:50.581Z,45.21
2019-04-01T14:31:21.716Z,45.76
2019-04-01T14:33:52.741Z,45.89
2019-04-01T14:36:23.877Z,45.15
2019-04-01T14:38:54.888Z,45.07
2019-04-01T14:41:26.097Z,45.50
2019-04-01T14:43:57.124Z,45.54
2019-04-01T14:46:28.297Z,46.14
2019-04-01T14:49:00.465Z,45.20
2019-04-01T14:51:32.065Z,44.29
2019-04-01T14:54:03.076Z,44.21
2019-04-01T14:56:34.201Z,44.07
2019-04-01T14:59:05.383Z,43.75
2019-04-01T15:01:36.494Z,43.97
2019-04-01T15:04:07.604Z,44.39
2019-04-01T15:06:38.791Z,44.19
2019-04-01T15:09:11.145Z,44.85
2019-04-01T15:11:42.877Z,44.51
2019-04-01T15:14:14.938Z,44.22
2019-04-01T15:16:46.133Z,44.18
2019-04-01T15:19:17.286Z,44.33
2019-04-01T15:21:48.409Z,42.90
2019-04-01T15:24:19.564Z,43.14
2019-04-01T15:26:50.684Z,42.56
2019-04-01T15:29:21.726Z,43.32
2019-04-01T15:31:53.475Z,42.06
2019-04-01T15:34:25.536Z,41.77
2019-04-01T15:36:56.602Z,43.19
2019-04-01T15:39:27.627Z,43.26
2019-04-01T15:41:58.675Z,43.40
2019-04-01T15:44:29.707Z,43.01
2019-04-01T15:47:04.475Z,42.92
2019-04-01T15:49:34.535Z,42.92
2019-04-01T15:52:06.015Z,43.08
2019-04-01T15:54:37.079Z,43.29
2019-04-01T15:57:08.110Z,43.37
2019-04-01T15:59:39.143Z,43.25
2019-04-01T16:02:10.359Z,42.65
2019-04-01T16:04:41.469Z,42.92
2019-04-01T16:07:12.610Z,43.84
2019-04-01T16:09:43.644Z,44.16
2019-04-01T16:12:16.012Z,43.84
2019-04-01T16:14:47.234Z,43.60
2019-04-01T16:17:18.321Z,44.00
2019-04-01T16:19:49.363Z,43.91
2019-04-01T16:22:21.909Z,44.14
2019-04-01T16:24:53.342Z,44.60
2019-04-01T16:27:24.386Z,45.13
2019-04-01T16:29:55.593Z,44.48
2019-04-01T16:32:26.734Z,44.30
2019-04-01T16:34:57.854Z,44.08
2019-04-01T16:37:28.919Z,44.47
2019-04-01T16:40:00.025Z,43.96
2019-04-01T16:42:31.219Z,44.21
2019-04-01T16:45:02.397Z,43.58
2019-04-01T16:47:33.516Z,44.10
2019-04-01T16:50:05.602Z,43.91
2019-04-01T16:52:36.834Z,44.15
2019-04-01T16:55:09.316Z,44.70
2019-04-01T16:57:40.434Z,44.58
2019-04-01T17:00:14.631Z,44.36
2019-04-01T17:02:45.537Z,44.65
2019-04-01T17:05:19.397Z,44.57
2019-04-01T17:07:50.429Z,44.89
2019-04-01T17:10:24.932Z,45.16
2019-04-01T17:12:55.963Z,44.91
2019-04-01T17:15:27.384Z,45.20
2019-04-01T17:17:58.542Z,45.21
2019-04-01T17:20:29.770Z,45.26
2019-04-01T17:23:01.135Z,45.66
2019-04-01T17:25:33.683Z,45.94
2019-04-01T17:28:04.989Z,45.75
2019-04-01T17:30:36.167Z,46.09
2019-04-01T17:33:08.584Z,46.18
2019-04-01T17:35:40.070Z,46.29
2019-04-01T17:38:13.623Z,46.62
2019-04-01T17:40:44.084Z,47.19
2019-04-01T17:43:16.822Z,47.16
2019-04-01T17:45:48.699Z,47.68
2019-04-01T17:48:19.991Z,47.50
2019-04-01T17:50:51.040Z,47.56
2019-04-01T17:53:22.281Z,47.79
2019-04-01T17:55:53.560Z,47.97
2019-04-01T17:58:24.706Z,48.39
2019-04-01T18:00:57.981Z,48.56
2019-04-01T18:03:29.158Z,49.18
2019-04-01T18:06:00.196Z,49.83
2019-04-01T18:08:31.418Z,49.98
2019-04-01T18:11:02.463Z,50.68
2019-04-01T18:13:33.517Z,51.07
2019-04-01T18:16:04.722Z,50.48
2019-04-01T18:18:35.776Z,50.95
2019-04-01T18:21:06.801Z,51.08
2019-04-01T18:23:37.864Z,51.08
2019-04-01T18:26:08.936Z,51.40
2019-04-01T18:28:40.321Z,51.36
2019-04-01T18:31:12.446Z,51.45
2019-04-01T18:33:55.669Z,52.46
2019-04-01T18:36:16.261Z,55.56
2019-04-01T18:38:47.316Z,55.93
2019-04-01T18:41:18.565Z,56.44
2019-04-01T18:43:49.680Z,57.05
2019-04-01T18:46:21.192Z,57.22
2019-04-01T18:48:52.837Z,58.29
2019-04-01T18:51:23.943Z,57.58
2019-04-01T18:53:55.161Z,57.95
2019-04-01T18:56:26.199Z,57.55
2019-04-01T18:58:57.263Z,57.87
2019-04-01T19:01:28.428Z,57.55
2019-04-01T19:04:00.531Z,56.15
2019-04-01T19:06:31.542Z,57.98
2019-04-01T19:09:09.209Z,57.62
2019-04-01T19:11:36.106Z,58.40
2019-04-01T19:14:07.351Z,58.80
2019-04-01T19:16:38.547Z,58.37
2019-04-01T19:19:11.092Z,58.68
2019-04-01T19:21:42.259Z,58.69
2019-04-01T19:24:13.377Z,58.68
2019-04-01T19:26:44.547Z,59.27
2019-04-01T19:29:16.235Z,58.47
2019-04-01T19:31:51.004Z,58.31
2019-04-01T19:34:20.396Z,58.05
2019-04-01T19:36:51.428Z,57.63
2019-04-01T19:39:23.247Z,58.22
2019-04-01T19:41:54.547Z,59.14
2019-04-01T19:44:25.623Z,59.42
2019-04-01T19:46:56.769Z,59.39
2019-04-01T19:49:28.344Z,59.63
2019-04-01T19:51:59.611Z,59.74
2019-04-01T19:54:33.824Z,59.96
2019-04-01T19:57:03.861Z,59.79
2019-04-01T19:59:35.816Z,60.02
2019-04-01T20:02:09.596Z,60.42
2019-04-01T20:04:40.105Z,60.79
2019-04-01T20:07:11.241Z,59.62
2019-04-01T20:09:42.305Z,60.94
2019-04-01T20:12:13.411Z,59.41
2019-04-01T20:14:44.597Z,60.09
2019-04-01T20:17:15.753Z,61.52
2019-04-01T20:19:47.020Z,61.15
2019-04-01T20:22:18.104Z,60.59
2019-04-01T20:24:50.200Z,60.72
2019-04-01T20:27:21.375Z,60.56
2019-04-01T20:29:52.397Z,62.18
2019-04-01T20:32:23.438Z,60.73
2019-04-01T20:34:57.264Z,60.67
2019-04-01T20:37:29.323Z,61.36
2019-04-01T20:40:00.704Z,60.96
2019-04-01T20:42:33.677Z,61.63
2019-04-01T20:45:05.566Z,61.67
2019-04-01T20:47:36.970Z,60.22
2019-04-01T20:50:09.791Z,58.07
2019-04-01T20:52:41.060Z,60.90
2019-04-01T20:55:13.987Z,60.70
2019-04-01T20:57:46.092Z,61.01
2019-04-01T21:00:19.093Z,63.65
2019-04-01T21:02:50.229Z,62.01
2019-04-01T21:05:21.481Z,61.65
2019-04-01T21:07:52.720Z,62.40
2019-04-01T21:10:23.999Z,62.60
2019-04-01T21:12:55.143Z,62.75
2019-04-01T21:15:26.378Z,62.89
2019-04-01T21:17:57.528Z,61.76
2019-04-01T21:20:28.612Z,62.24
2019-04-01T21:22:59.729Z,61.77
2019-04-01T21:25:31.070Z,58.65
2019-04-01T21:28:02.480Z,60.75
2019-04-01T21:30:33.643Z,62.64
2019-04-01T21:33:04.793Z,63.06
2019-04-01T21:35:35.975Z,61.75
2019-04-01T21:38:09.134Z,60.21
2019-04-01T21:40:40.319Z,62.82
2019-04-01T21:43:11.506Z,62.45
2019-04-01T21:45:42.533Z,62.95
2019-04-01T21:48:13.562Z,63.80
2019-04-01T21:50:44.610Z,62.68
2019-04-01T21:53:15.810Z,64.81
2019-04-01T21:55:47.014Z,62.44
2019-04-01T21:58:19.147Z,62.60
2019-04-01T22:00:57.294Z,63.05
2019-04-01T22:03:30.090Z,63.22
2019-04-01T22:06:01.111Z,63.00
2019-04-01T22:08:32.242Z,63.10
2019-04-01T22:11:03.353Z,63.76
2019-04-01T22:13:34.528Z,63.07
2019-04-01T22:16:05.739Z,62.79
2019-04-01T22:18:36.854Z,63.05
2019-04-01T22:21:07.990Z,63.78
2019-04-01T22:23:39.091Z,63.50
2019-04-01T22:26:10.086Z,64.50
2019-04-01T22:28:41.190Z,64.39
2019-04-01T22:31:12.306Z,64.14
2019-04-01T22:33:43.337Z,64.38
2019-04-01T22:36:14.330Z,64.63
2019-04-01T22:38:45.433Z,64.75
2019-04-01T22:41:17.830Z,64.49
2019-04-01T22:43:48.871Z,66.75
2019-04-01T22:46:19.867Z,65.57
2019-04-01T22:48:50.878Z,65.48
2019-04-01T22:51:21.991Z,64.70
2019-04-01T22:53:53.026Z,64.47
2019-04-01T22:56:24.114Z,64.84
2019-04-01T22:58:55.535Z,63.37
2019-04-01T23:01:26.548Z,63.65
2019-04-01T23:03:57.550Z,64.16
2019-04-01T23:06:28.656Z,63.25
2019-04-01T23:09:00.093Z,61.70
2019-04-01T23:11:33.812Z,61.02
2019-04-01T23:14:04.845Z,62.64
2019-04-01T23:16:35.851Z,62.11
2019-04-01T23:19:06.841Z,61.90
2019-04-01T23:21:37.881Z,62.36
2019-04-01T23:24:08.940Z,63.32
2019-04-01T23:26:40.294Z,62.67
2019-04-01T23:29:11.402Z,62.50
2019-04-01T23:31:42.550Z,62.81
2019-04-01T23:34:14.119Z,62.59
2019-04-01T23:36:45.087Z,62.52
2019-04-01T23:39:16.101Z,64.86
2019-04-01T23:41:47.311Z,66.57
2019-04-01T23:44:18.450Z,65.93
2019-04-01T23:46:49.498Z,62.89
2019-04-01T23:49:20.548Z,63.67
2019-04-01T23:51:51.680Z,63.84
2019-04-01T23:54:22.716Z,64.21
2019-04-01T23:56:53.886Z,63.03
2019-04-01T23:59:25.022Z,63.52
